sensor_id;sensor_type;location;lat;lon;timestamp;pressure;altitude;pressure_sealevel;temperature;humidity
57644;BME280;43474;46.510;6.686;2022-10-19T00:00:50;97281.78;;;12.91;100.00
57644;BME280;43474;46.510;6.686;2022-10-19T00:03:28;97290.06;;;12.83;100.00
57644;BME280;43474;46.510;6.686;2022-10-19T00:05:54;97284.19;;;12.69;100.00
57644;BME280;43474;46.510;6.686;2022-10-19T00:08:20;97273.19;;;12.65;100.00
57644;BME280;43474;46.510;6.686;2022-10-19T00:10:45;97266.31;;;12.58;100.00
57644;BME280;43474;46.510;6.686;2022-10-19T00:13:11;97279.41;;;12.59;100.00
57644;BME280;43474;46.510;6.686;2022-10-19T00:15:38;97272.94;;;12.67;100.00
57644;BME280;43474;46.510;6.686;2022-10-19T00:18:05;97261.13;;;12.51;100.00
57644;BME280;43474;46.510;6.686;2022-10-19T00:20:30;97263.66;;;12.46;100.00
57644;BME280;43474;46.510;6.686;2022-10-19T00:22:56;97268.03;;;12.52;100.00
57644;BME280;43474;46.510;6.686;2022-10-19T00:25:22;97265.19;;;12.54;100.00
57644;BME280;43474;46.510;6.686;2022-10-19T00:27:47;97259.25;;;12.52;100.00
57644;BME280;43474;46.510;6.686;2022-10-19T00:30:13;97261.25;;;12.56;100.00
57644;BME280;43474;46.510;6.686;2022-10-19T00:32:38;97260.31;;;12.51;100.00
57644;BME280;43474;46.510;6.686;2022-10-19T00:35:04;97265.75;;;12.44;100.00
57644;BME280;43474;46.510;6.686;2022-10-19T00:37:30;97250.09;;;12.36;100.00
57644;BME280;43474;46.510;6.686;2022-10-19T00:39:55;97264.19;;;12.36;100.00
57644;BME280;43474;46.510;6.686;2022-10-19T00:42:21;97275.75;;;12.30;100.00
57644;BME280;43474;46.510;6.686;2022-10-19T00:47:12;97260.06;;;12.10;100.00
57644;BME280;43474;46.510;6.686;2022-10-19T00:49:41;97282.84;;;12.18;100.00
57644;BME280;43474;46.510;6.686;2022-10-19T00:52:11;97280.69;;;12.27;100.00
57644;BME280;43474;46.510;6.686;2022-10-19T00:54:39;97264.81;;;12.38;100.00
57644;BME280;43474;46.510;6.686;2022-10-19T00:57:06;97282.56;;;12.38;100.00
57644;BME280;43474;46.510;6.686;2022-10-19T00:59:32;97276.50;;;12.49;100.00
57644;BME280;43474;46.510;6.686;2022-10-19T01:01:59;97264.38;;;12.53;100.00
57644;BME280;43474;46.510;6.686;2022-10-19T01:04:28;97267.25;;;12.52;100.00
57644;BME280;43474;46.510;6.686;2022-10-19T01:06:55;97271.06;;;12.56;100.00
57644;BME280;43474;46.510;6.686;2022-10-19T01:09:21;97214.84;;;12.29;100.00
57644;BME280;43474;46.510;6.686;2022-10-19T01:26:45;97245.56;;;12.25;100.00
57644;BME280;43474;46.510;6.686;2022-10-19T01:32:13;97246.75;;;11.99;100.00
57644;BME280;43474;46.510;6.686;2022-10-19T01:35:01;97237.81;;;11.93;100.00
57644;BME280;43474;46.510;6.686;2022-10-19T01:40:14;97223.94;;;11.91;100.00
57644;BME280;43474;46.510;6.686;2022-10-19T01:42:47;97219.91;;;11.70;100.00
57644;BME280;43474;46.510;6.686;2022-10-19T01:45:22;97244.38;;;11.72;100.00
57644;BME280;43474;46.510;6.686;2022-10-19T01:48:08;97225.97;;;11.59;100.00
57644;BME280;43474;46.510;6.686;2022-10-19T01:50:56;97243.44;;;11.67;100.00
57644;BME280;43474;46.510;6.686;2022-10-19T01:53:27;97257.66;;;11.72;100.00
57644;BME280;43474;46.510;6.686;2022-10-19T01:55:55;97257.66;;;11.72;100.00
57644;BME280;43474;46.510;6.686;2022-10-19T01:58:26;97233.03;;;11.65;100.00
57644;BME280;43474;46.510;6.686;2022-10-19T02:00:54;97241.97;;;11.71;100.00
57644;BME280;43474;46.510;6.686;2022-10-19T02:03:22;97243.34;;;11.73;100.00
57644;BME280;43474;46.510;6.686;2022-10-19T02:05:49;97225.28;;;11.63;100.00
57644;BME280;43474;46.510;6.686;2022-10-19T02:08:23;97237.75;;;11.81;100.00
57644;BME280;43474;46.510;6.686;2022-10-19T02:10:53;97225.00;;;11.72;100.00
57644;BME280;43474;46.510;6.686;2022-10-19T02:13:20;97239.59;;;11.99;100.00
57644;BME280;43474;46.510;6.686;2022-10-19T02:15:48;97233.59;;;12.04;100.00
57644;BME280;43474;46.510;6.686;2022-10-19T02:18:18;97255.66;;;12.04;100.00
57644;BME280;43474;46.510;6.686;2022-10-19T02:20:46;97237.81;;;11.93;100.00
57644;BME280;43474;46.510;6.686;2022-10-19T02:23:14;97239.47;;;11.94;100.00
57644;BME280;43474;46.510;6.686;2022-10-19T02:25:41;97221.59;;;11.83;100.00
57644;BME280;43474;46.510;6.686;2022-10-19T02:28:07;97229.69;;;11.88;100.00
57644;BME280;43474;46.510;6.686;2022-10-19T02:30:33;97226.53;;;11.79;100.00
57644;BME280;43474;46.510;6.686;2022-10-19T02:32:58;97224.91;;;11.78;100.00
57644;BME280;43474;46.510;6.686;2022-10-19T02:35:24;97228.81;;;11.76;100.00
57644;BME280;43474;46.510;6.686;2022-10-19T02:37:50;97225.94;;;11.77;100.00
57644;BME280;43474;46.510;6.686;2022-10-19T02:40:16;97214.28;;;11.78;100.00
57644;BME280;43474;46.510;6.686;2022-10-19T02:42:51;97218.88;;;11.71;100.00
57644;BME280;43474;46.510;6.686;2022-10-19T02:45:22;97194.19;;;11.52;100.00
57644;BME280;43474;46.510;6.686;2022-10-19T02:47:53;97193.97;;;11.54;100.00
57644;BME280;43474;46.510;6.686;2022-10-19T02:50:20;97209.69;;;11.55;100.00
57644;BME280;43474;46.510;6.686;2022-10-19T02:52:45;97215.53;;;11.76;100.00
57644;BME280;43474;46.510;6.686;2022-10-19T02:55:11;97208.25;;;11.71;100.00
57644;BME280;43474;46.510;6.686;2022-10-19T02:57:36;97212.84;;;11.64;100.00
57644;BME280;43474;46.510;6.686;2022-10-19T03:00:04;97221.63;;;11.64;100.00
57644;BME280;43474;46.510;6.686;2022-10-19T03:02:30;97219.53;;;11.67;100.00
57644;BME280;43474;46.510;6.686;2022-10-19T03:04:56;97210.91;;;11.53;100.00
57644;BME280;43474;46.510;6.686;2022-10-19T03:07:21;97215.13;;;11.60;100.00
57644;BME280;43474;46.510;6.686;2022-10-19T03:09:48;97227.34;;;11.61;100.00
57644;BME280;43474;46.510;6.686;2022-10-19T03:12:14;97220.19;;;11.62;100.00
57644;BME280;43474;46.510;6.686;2022-10-19T03:14:39;97218.00;;;11.59;100.00
57644;BME280;43474;46.510;6.686;2022-10-19T03:17:05;97201.56;;;11.50;100.00
57644;BME280;43474;46.510;6.686;2022-10-19T03:19:31;97177.03;;;11.36;100.00
57644;BME280;43474;46.510;6.686;2022-10-19T03:21:56;97195.84;;;11.35;100.00
57644;BME280;43474;46.510;6.686;2022-10-19T03:24:22;97133.81;;;10.99;100.00
57644;BME280;43474;46.510;6.686;2022-10-19T03:26:48;97182.63;;;11.28;100.00
57644;BME280;43474;46.510;6.686;2022-10-19T03:29:13;97187.44;;;11.20;100.00
57644;BME280;43474;46.510;6.686;2022-10-19T03:31:39;97189.94;;;11.15;100.00
57644;BME280;43474;46.510;6.686;2022-10-19T03:34:04;97184.19;;;11.18;100.00
57644;BME280;43474;46.510;6.686;2022-10-19T03:36:35;97181.47;;;11.24;100.00
57644;BME280;43474;46.510;6.686;2022-10-19T03:39:02;97192.13;;;11.18;100.00
57644;BME280;43474;46.510;6.686;2022-10-19T03:41:31;97179.91;;;10.98;100.00
57644;BME280;43474;46.510;6.686;2022-10-19T03:43:57;97183.16;;;11.00;100.00
57644;BME280;43474;46.510;6.686;2022-10-19T03:46:23;97192.22;;;11.11;100.00
57644;BME280;43474;46.510;6.686;2022-10-19T03:48:49;97192.44;;;11.09;100.00
57644;BME280;43474;46.510;6.686;2022-10-19T03:51:20;97184.63;;;11.15;100.00
57644;BME280;43474;46.510;6.686;2022-10-19T03:53:47;97200.38;;;11.28;100.00
57644;BME280;43474;46.510;6.686;2022-10-19T03:56:17;97193.47;;;11.27;100.00
57644;BME280;43474;46.510;6.686;2022-10-19T03:58:44;97201.19;;;11.28;100.00
57644;BME280;43474;46.510;6.686;2022-10-19T04:01:21;97199.38;;;11.29;100.00
57644;BME280;43474;46.510;6.686;2022-10-19T04:03:52;97196.41;;;11.19;100.00
57644;BME280;43474;46.510;6.686;2022-10-19T04:06:18;97192.75;;;11.20;100.00
57644;BME280;43474;46.510;6.686;2022-10-19T04:08:47;97183.13;;;11.19;100.00
57644;BME280;43474;46.510;6.686;2022-10-19T04:11:14;97205.03;;;11.32;100.00
57644;BME280;43474;46.510;6.686;2022-10-19T04:13:41;97184.13;;;11.24;100.00
57644;BME280;43474;46.510;6.686;2022-10-19T04:16:07;97202.75;;;11.36;100.00
57644;BME280;43474;46.510;6.686;2022-10-19T04:18:33;97191.56;;;11.16;100.00
57644;BME280;43474;46.510;6.686;2022-10-19T04:21:01;97178.88;;;11.18;100.00
57644;BME280;43474;46.510;6.686;2022-10-19T04:23:29;97180.72;;;11.35;100.00
57644;BME280;43474;46.510;6.686;2022-10-19T04:26:05;97183.47;;;11.29;100.00
57644;BME280;43474;46.510;6.686;2022-10-19T04:28:32;97184.69;;;11.26;100.00
57644;BME280;43474;46.510;6.686;2022-10-19T04:31:03;97174.47;;;11.11;100.00
57644;BME280;43474;46.510;6.686;2022-10-19T04:33:29;97183.84;;;11.14;100.00
57644;BME280;43474;46.510;6.686;2022-10-19T04:36:01;97184.41;;;11.16;100.00
57644;BME280;43474;46.510;6.686;2022-10-19T04:38:27;97177.19;;;11.05;100.00
57644;BME280;43474;46.510;6.686;2022-10-19T04:40:53;97185.50;;;11.08;100.00
57644;BME280;43474;46.510;6.686;2022-10-19T04:43:19;97163.63;;;10.95;100.00
57644;BME280;43474;46.510;6.686;2022-10-19T04:45:44;97164.28;;;10.90;100.00
57644;BME280;43474;46.510;6.686;2022-10-19T04:48:10;97165.91;;;10.91;100.00
57644;BME280;43474;46.510;6.686;2022-10-19T04:50:35;97122.91;;;10.46;100.00
57644;BME280;43474;46.510;6.686;2022-10-19T04:53:01;97120.50;;;10.63;100.00
57644;BME280;43474;46.510;6.686;2022-10-19T04:55:26;97170.78;;;10.94;100.00
57644;BME280;43474;46.510;6.686;2022-10-19T04:57:52;97176.44;;;10.79;100.00
57644;BME280;43474;46.510;6.686;2022-10-19T05:00:17;97177.66;;;10.77;100.00
57644;BME280;43474;46.510;6.686;2022-10-19T05:02:44;97172.13;;;10.60;100.00
57644;BME280;43474;46.510;6.686;2022-10-19T05:05:11;97166.28;;;10.51;100.00
57644;BME280;43474;46.510;6.686;2022-10-19T05:07:36;97180.34;;;10.52;100.00
57644;BME280;43474;46.510;6.686;2022-10-19T05:10:02;97172.56;;;10.57;100.00
57644;BME280;43474;46.510;6.686;2022-10-19T05:12:28;97183.81;;;10.52;100.00
57644;BME280;43474;46.510;6.686;2022-10-19T05:14:53;97168.22;;;10.38;100.00
57644;BME280;43474;46.510;6.686;2022-10-19T05:17:19;97139.44;;;10.16;100.00
57644;BME280;43474;46.510;6.686;2022-10-19T05:19:45;97150.63;;;10.25;100.00
57644;BME280;43474;46.510;6.686;2022-10-19T05:22:10;97143.16;;;10.40;100.00
57644;BME280;43474;46.510;6.686;2022-10-19T05:24:36;97160.66;;;10.41;100.00
57644;BME280;43474;46.510;6.686;2022-10-19T05:27:01;97160.25;;;10.44;100.00
57644;BME280;43474;46.510;6.686;2022-10-19T05:29:27;97175.28;;;10.50;100.00
57644;BME280;43474;46.510;6.686;2022-10-19T05:31:52;97175.75;;;10.66;100.00
57644;BME280;43474;46.510;6.686;2022-10-19T05:34:18;97174.56;;;10.61;100.00
57644;BME280;43474;46.510;6.686;2022-10-19T05:36:44;97178.22;;;10.60;100.00
57644;BME280;43474;46.510;6.686;2022-10-19T05:39:14;97169.34;;;10.73;100.00
57644;BME280;43474;46.510;6.686;2022-10-19T05:41:44;97156.16;;;10.67;100.00
57644;BME280;43474;46.510;6.686;2022-10-19T05:44:16;97173.28;;;10.89;100.00
57644;BME280;43474;46.510;6.686;2022-10-19T05:46:42;97172.75;;;10.99;100.00
57644;BME280;43474;46.510;6.686;2022-10-19T05:49:09;97167.75;;;10.91;100.00
57644;BME280;43474;46.510;6.686;2022-10-19T05:51:35;97167.16;;;11.07;100.00
57644;BME280;43474;46.510;6.686;2022-10-19T05:54:00;97163.28;;;11.09;100.00
57644;BME280;43474;46.510;6.686;2022-10-19T05:56:28;97153.03;;;10.95;100.00
57644;BME280;43474;46.510;6.686;2022-10-19T05:58:55;97124.41;;;10.60;100.00
57644;BME280;43474;46.510;6.686;2022-10-19T06:01:21;97166.13;;;10.90;100.00
57644;BME280;43474;46.510;6.686;2022-10-19T06:03:50;97165.53;;;11.06;100.00
57644;BME280;43474;46.510;6.686;2022-10-19T06:06:16;97176.22;;;11.18;100.00
57644;BME280;43474;46.510;6.686;2022-10-19T06:08:42;97144.41;;;10.99;100.00
57644;BME280;43474;46.510;6.686;2022-10-19T06:11:17;97160.25;;;11.06;100.00
57644;BME280;43474;46.510;6.686;2022-10-19T06:13:44;97173.41;;;11.12;100.00
57644;BME280;43474;46.510;6.686;2022-10-19T06:16:12;97159.44;;;11.05;100.00
57644;BME280;43474;46.510;6.686;2022-10-19T06:18:37;97155.69;;;10.95;100.00
57644;BME280;43474;46.510;6.686;2022-10-19T06:21:05;97173.28;;;11.07;100.00
57644;BME280;43474;46.510;6.686;2022-10-19T06:23:33;97163.47;;;11.08;100.00
57644;BME280;43474;46.510;6.686;2022-10-19T06:26:01;97157.81;;;11.04;100.00
57644;BME280;43474;46.510;6.686;2022-10-19T06:28:27;97176.38;;;11.23;100.00
57644;BME280;43474;46.510;6.686;2022-10-19T06:30:53;97173.38;;;11.19;100.00
57644;BME280;43474;46.510;6.686;2022-10-19T06:33:18;97156.97;;;11.22;100.00
57644;BME280;43474;46.510;6.686;2022-10-19T06:35:44;97148.97;;;11.29;100.00
57644;BME280;43474;46.510;6.686;2022-10-19T06:38:09;97174.63;;;11.65;100.00
57644;BME280;43474;46.510;6.686;2022-10-19T06:40:35;97154.59;;;11.51;100.00
57644;BME280;43474;46.510;6.686;2022-10-19T06:43:00;97175.22;;;11.67;100.00
57644;BME280;43474;46.510;6.686;2022-10-19T06:45:26;97172.63;;;11.79;100.00
57644;BME280;43474;46.510;6.686;2022-10-19T06:47:52;97151.81;;;11.76;100.00
57644;BME280;43474;46.510;6.686;2022-10-19T06:50:17;97153.00;;;11.80;100.00
57644;BME280;43474;46.510;6.686;2022-10-19T06:52:44;97145.84;;;11.80;100.00
57644;BME280;43474;46.510;6.686;2022-10-19T06:55:10;97147.88;;;11.78;100.00
57644;BME280;43474;46.510;6.686;2022-10-19T06:57:36;97169.88;;;12.15;100.00
57644;BME280;43474;46.510;6.686;2022-10-19T07:00:03;97168.88;;;12.28;100.00
57644;BME280;43474;46.510;6.686;2022-10-19T07:02:29;97180.66;;;12.44;100.00
57644;BME280;43474;46.510;6.686;2022-10-19T07:04:54;97174.53;;;12.44;100.00
57644;BME280;43474;46.510;6.686;2022-10-19T07:07:20;97166.69;;;12.49;100.00
57644;BME280;43474;46.510;6.686;2022-10-19T07:09:47;97184.72;;;12.70;100.00
57644;BME280;43474;46.510;6.686;2022-10-19T07:12:12;97170.75;;;12.75;100.00
57644;BME280;43474;46.510;6.686;2022-10-19T07:14:38;97173.84;;;12.95;100.00
57644;BME280;43474;46.510;6.686;2022-10-19T07:17:09;97170.25;;;13.13;100.00
57644;BME280;43474;46.510;6.686;2022-10-19T07:19:35;97154.63;;;13.28;100.00
57644;BME280;43474;46.510;6.686;2022-10-19T07:22:01;97147.84;;;13.49;100.00
57644;BME280;43474;46.510;6.686;2022-10-19T07:24:27;97153.59;;;13.86;100.00
57644;BME280;43474;46.510;6.686;2022-10-19T07:26:52;97149.66;;;15.07;100.00
57644;BME280;43474;46.510;6.686;2022-10-19T07:29:18;97153.84;;;15.63;100.00
57644;BME280;43474;46.510;6.686;2022-10-19T07:31:43;97128.59;;;16.03;100.00
57644;BME280;43474;46.510;6.686;2022-10-19T07:34:11;97142.75;;;16.68;100.00
57644;BME280;43474;46.510;6.686;2022-10-19T07:36:37;97140.97;;;17.31;100.00
57644;BME280;43474;46.510;6.686;2022-10-19T07:39:05;97120.25;;;17.84;100.00
57644;BME280;43474;46.510;6.686;2022-10-19T07:41:31;97111.19;;;18.26;100.00
57644;BME280;43474;46.510;6.686;2022-10-19T07:43:57;97126.47;;;18.76;100.00
57644;BME280;43474;46.510;6.686;2022-10-19T07:46:28;97142.50;;;19.12;100.00
57644;BME280;43474;46.510;6.686;2022-10-19T07:48:58;97156.91;;;19.42;100.00
57644;BME280;43474;46.510;6.686;2022-10-19T07:51:25;97152.75;;;19.80;100.00
57644;BME280;43474;46.510;6.686;2022-10-19T07:53:51;97132.28;;;19.79;100.00
57644;BME280;43474;46.510;6.686;2022-10-19T07:56:26;97147.94;;;20.16;100.00
57644;BME280;43474;46.510;6.686;2022-10-19T07:58:54;97138.50;;;20.53;100.00
57644;BME280;43474;46.510;6.686;2022-10-19T08:01:22;97151.09;;;20.62;100.00
57644;BME280;43474;46.510;6.686;2022-10-19T08:03:50;97145.75;;;20.86;100.00
57644;BME280;43474;46.510;6.686;2022-10-19T08:06:16;97143.97;;;20.77;100.00
57644;BME280;43474;46.510;6.686;2022-10-19T08:08:44;97162.81;;;20.77;100.00
57644;BME280;43474;46.510;6.686;2022-10-19T08:11:28;97160.28;;;21.14;100.00
57644;BME280;43474;46.510;6.686;2022-10-19T08:13:54;97165.16;;;21.12;100.00
57644;BME280;43474;46.510;6.686;2022-10-19T08:16:24;97159.00;;;21.07;100.00
57644;BME280;43474;46.510;6.686;2022-10-19T08:18:51;97151.41;;;21.14;100.00
57644;BME280;43474;46.510;6.686;2022-10-19T08:21:17;97151.22;;;21.05;100.00
57644;BME280;43474;46.510;6.686;2022-10-19T08:23:42;97141.47;;;21.57;100.00
57644;BME280;43474;46.510;6.686;2022-10-19T08:26:08;97146.53;;;22.02;97.85
57644;BME280;43474;46.510;6.686;2022-10-19T08:28:33;97100.06;;;21.48;95.99
57644;BME280;43474;46.510;6.686;2022-10-19T08:31:08;97130.13;;;20.88;100.00
57644;BME280;43474;46.510;6.686;2022-10-19T08:33:34;97120.66;;;20.62;100.00
57644;BME280;43474;46.510;6.686;2022-10-19T08:35:59;97119.16;;;21.28;100.00
57644;BME280;43474;46.510;6.686;2022-10-19T08:38:28;97116.13;;;21.58;100.00
57644;BME280;43474;46.510;6.686;2022-10-19T08:40:54;97107.69;;;20.01;100.00
57644;BME280;43474;46.510;6.686;2022-10-19T08:43:29;97132.06;;;18.95;100.00
57644;BME280;43474;46.510;6.686;2022-10-19T08:46:22;97119.75;;;18.53;100.00
57644;BME280;43474;46.510;6.686;2022-10-19T08:48:50;97122.72;;;18.16;100.00
57644;BME280;43474;46.510;6.686;2022-10-19T08:51:16;97119.47;;;18.45;100.00
57644;BME280;43474;46.510;6.686;2022-10-19T08:56:28;97123.22;;;18.79;100.00
57644;BME280;43474;46.510;6.686;2022-10-19T08:59:25;97112.25;;;18.45;100.00
57644;BME280;43474;46.510;6.686;2022-10-19T09:01:58;97124.59;;;18.36;100.00
57644;BME280;43474;46.510;6.686;2022-10-19T09:04:35;97102.31;;;18.46;100.00
57644;BME280;43474;46.510;6.686;2022-10-19T09:09:40;97109.28;;;18.77;100.00
57644;BME280;43474;46.510;6.686;2022-10-19T09:12:11;97093.44;;;18.71;100.00
57644;BME280;43474;46.510;6.686;2022-10-19T09:14:55;97108.13;;;18.99;100.00
57644;BME280;43474;46.510;6.686;2022-10-19T09:17:22;97106.03;;;20.05;100.00
57644;BME280;43474;46.510;6.686;2022-10-19T09:19:50;97101.34;;;20.21;100.00
57644;BME280;43474;46.510;6.686;2022-10-19T09:22:20;97097.88;;;20.78;100.00
57644;BME280;43474;46.510;6.686;2022-10-19T09:24:54;97104.47;;;19.94;100.00
57644;BME280;43474;46.510;6.686;2022-10-19T09:27:28;97101.53;;;19.46;100.00
57644;BME280;43474;46.510;6.686;2022-10-19T09:30:03;97089.31;;;19.04;100.00
57644;BME280;43474;46.510;6.686;2022-10-19T09:32:35;97097.88;;;19.16;100.00
57644;BME280;43474;46.510;6.686;2022-10-19T09:37:30;97102.19;;;20.79;100.00
57644;BME280;43474;46.510;6.686;2022-10-19T09:40:01;97099.69;;;21.36;100.00
57644;BME280;43474;46.510;6.686;2022-10-19T09:42:29;97094.91;;;20.51;100.00
57644;BME280;43474;46.510;6.686;2022-10-19T09:44:58;97086.38;;;19.70;100.00
57644;BME280;43474;46.510;6.686;2022-10-19T09:47:31;97090.34;;;20.46;100.00
57644;BME280;43474;46.510;6.686;2022-10-19T09:52:43;97081.84;;;21.40;100.00
57644;BME280;43474;46.510;6.686;2022-10-19T09:57:45;97065.94;;;21.76;99.72
57644;BME280;43474;46.510;6.686;2022-10-19T10:00:19;97076.09;;;22.03;100.00
57644;BME280;43474;46.510;6.686;2022-10-19T10:02:54;97083.31;;;22.40;99.04
57644;BME280;43474;46.510;6.686;2022-10-19T10:05:30;97082.94;;;22.47;93.69
57644;BME280;43474;46.510;6.686;2022-10-19T10:07:56;97079.97;;;22.76;96.42
57644;BME280;43474;46.510;6.686;2022-10-19T10:10:27;97038.38;;;22.91;94.96
57644;BME280;43474;46.510;6.686;2022-10-19T10:12:53;97080.84;;;23.18;92.12
57644;BME280;43474;46.510;6.686;2022-10-19T10:15:26;97081.81;;;23.22;91.31
57644;BME280;43474;46.510;6.686;2022-10-19T10:17:52;97064.81;;;23.21;89.11
57644;BME280;43474;46.510;6.686;2022-10-19T10:20:28;97074.63;;;23.04;89.53
57644;BME280;43474;46.510;6.686;2022-10-19T10:23:02;97052.25;;;22.57;90.33
57644;BME280;43474;46.510;6.686;2022-10-19T10:25:32;97070.66;;;22.55;90.12
57644;BME280;43474;46.510;6.686;2022-10-19T10:28:16;97078.25;;;22.53;90.00
57644;BME280;43474;46.510;6.686;2022-10-19T10:30:43;97046.44;;;22.17;90.38
57644;BME280;43474;46.510;6.686;2022-10-19T10:33:15;97073.44;;;22.17;92.92
57644;BME280;43474;46.510;6.686;2022-10-19T10:35:46;97072.59;;;22.68;91.88
57644;BME280;43474;46.510;6.686;2022-10-19T10:38:22;97060.88;;;22.26;91.00
57644;BME280;43474;46.510;6.686;2022-10-19T10:40:59;97061.84;;;22.49;90.24
57644;BME280;43474;46.510;6.686;2022-10-19T10:43:30;97059.16;;;22.77;90.22
57644;BME280;43474;46.510;6.686;2022-10-19T10:46:04;97052.66;;;22.64;89.26
57644;BME280;43474;46.510;6.686;2022-10-19T10:48:36;97063.63;;;23.14;91.12
57644;BME280;43474;46.510;6.686;2022-10-19T10:51:10;97058.22;;;23.14;88.65
57644;BME280;43474;46.510;6.686;2022-10-19T10:53:43;97048.75;;;23.39;88.44
57644;BME280;43474;46.510;6.686;2022-10-19T10:56:25;97045.59;;;23.23;88.00
57644;BME280;43474;46.510;6.686;2022-10-19T11:01:39;97031.97;;;23.01;89.47
57644;BME280;43474;46.510;6.686;2022-10-19T11:04:25;97025.38;;;22.93;87.32
57644;BME280;43474;46.510;6.686;2022-10-19T11:07:15;97015.44;;;23.02;87.81
57644;BME280;43474;46.510;6.686;2022-10-19T11:09:43;96972.31;;;22.83;87.85
57644;BME280;43474;46.510;6.686;2022-10-19T11:12:15;97026.84;;;22.85;87.68
57644;BME280;43474;46.510;6.686;2022-10-19T11:14:48;97003.34;;;22.12;88.58
57644;BME280;43474;46.510;6.686;2022-10-19T11:17:25;97005.59;;;22.51;89.19
57644;BME280;43474;46.510;6.686;2022-10-19T11:19:51;96996.47;;;22.19;90.01
57644;BME280;43474;46.510;6.686;2022-10-19T11:25:19;97016.47;;;22.00;88.13
57644;BME280;43474;46.510;6.686;2022-10-19T11:28:10;97011.31;;;22.03;87.16
57644;BME280;43474;46.510;6.686;2022-10-19T11:31:08;97008.69;;;21.98;86.07
57644;BME280;43474;46.510;6.686;2022-10-19T11:36:45;97002.00;;;22.09;86.72
57644;BME280;43474;46.510;6.686;2022-10-19T11:42:39;96977.50;;;22.06;88.01
57644;BME280;43474;46.510;6.686;2022-10-19T11:55:45;96941.31;;;21.41;89.83
57644;BME280;43474;46.510;6.686;2022-10-19T12:09:21;96928.47;;;21.85;86.37
57644;BME280;43474;46.510;6.686;2022-10-19T12:12:30;96933.03;;;22.03;84.26
57644;BME280;43474;46.510;6.686;2022-10-19T12:17:36;96935.22;;;22.01;87.06
57644;BME280;43474;46.510;6.686;2022-10-19T12:20:15;96926.97;;;22.11;84.69
57644;BME280;43474;46.510;6.686;2022-10-19T12:22:42;96926.59;;;22.18;85.54
57644;BME280;43474;46.510;6.686;2022-10-19T12:25:11;96927.63;;;22.03;82.87
57644;BME280;43474;46.510;6.686;2022-10-19T12:27:39;96862.28;;;21.60;84.37
57644;BME280;43474;46.510;6.686;2022-10-19T12:30:12;96899.03;;;21.56;85.46
57644;BME280;43474;46.510;6.686;2022-10-19T12:36:00;96899.56;;;21.72;83.39
57644;BME280;43474;46.510;6.686;2022-10-19T12:39:23;96884.56;;;21.65;80.32
57644;BME280;43474;46.510;6.686;2022-10-19T12:41:37;96898.53;;;21.67;81.04
57644;BME280;43474;46.510;6.686;2022-10-19T12:46:45;96908.44;;;21.58;83.15
57644;BME280;43474;46.510;6.686;2022-10-19T12:49:42;96907.19;;;21.51;85.61
57644;BME280;43474;46.510;6.686;2022-10-19T12:52:08;96902.09;;;21.82;84.18
57644;BME280;43474;46.510;6.686;2022-10-19T12:54:37;96889.56;;;21.58;81.83
57644;BME280;43474;46.510;6.686;2022-10-19T12:57:27;96885.47;;;21.23;79.91
57644;BME280;43474;46.510;6.686;2022-10-19T13:00:17;96883.41;;;21.01;80.43
57644;BME280;43474;46.510;6.686;2022-10-19T13:02:45;96893.81;;;21.08;85.46
57644;BME280;43474;46.510;6.686;2022-10-19T13:05:22;96853.81;;;20.96;81.73
57644;BME280;43474;46.510;6.686;2022-10-19T13:07:49;96887.59;;;21.26;83.30
57644;BME280;43474;46.510;6.686;2022-10-19T13:10:24;96893.69;;;20.99;81.18
57644;BME280;43474;46.510;6.686;2022-10-19T13:12:51;96882.44;;;20.73;86.94
57644;BME280;43474;46.510;6.686;2022-10-19T13:18:13;96882.78;;;20.67;81.18
57644;BME280;43474;46.510;6.686;2022-10-19T13:20:50;96871.44;;;20.51;84.53
57644;BME280;43474;46.510;6.686;2022-10-19T13:25:42;96873.66;;;20.20;88.34
57644;BME280;43474;46.510;6.686;2022-10-19T13:40:59;96842.91;;;19.44;91.76
57644;BME280;43474;46.510;6.686;2022-10-19T13:43:26;96850.63;;;19.60;95.41
57644;BME280;43474;46.510;6.686;2022-10-19T13:46:25;96832.31;;;19.57;92.44
57644;BME280;43474;46.510;6.686;2022-10-19T13:54:40;96854.97;;;19.51;93.75
57644;BME280;43474;46.510;6.686;2022-10-19T13:57:46;96839.44;;;19.43;93.39
57644;BME280;43474;46.510;6.686;2022-10-19T14:00:21;96842.75;;;19.69;94.71
57644;BME280;43474;46.510;6.686;2022-10-19T14:03:07;96829.63;;;19.86;95.24
57644;BME280;43474;46.510;6.686;2022-10-19T14:12:00;96841.53;;;21.09;93.30
57644;BME280;43474;46.510;6.686;2022-10-19T14:14:22;96822.50;;;21.00;91.51
57644;BME280;43474;46.510;6.686;2022-10-19T14:16:59;96838.28;;;21.26;91.61
57644;BME280;43474;46.510;6.686;2022-10-19T14:19:39;96836.31;;;21.31;90.88
57644;BME280;43474;46.510;6.686;2022-10-19T14:22:36;96817.91;;;21.01;93.29
57644;BME280;43474;46.510;6.686;2022-10-19T14:25:15;96823.84;;;20.84;94.20
57644;BME280;43474;46.510;6.686;2022-10-19T14:27:41;96807.69;;;20.84;93.85
57644;BME280;43474;46.510;6.686;2022-10-19T14:30:25;96816.25;;;20.48;94.47
57644;BME280;43474;46.510;6.686;2022-10-19T14:32:52;96805.66;;;20.14;95.84
57644;BME280;43474;46.510;6.686;2022-10-19T14:35:47;96812.50;;;19.77;97.38
57644;BME280;43474;46.510;6.686;2022-10-19T14:38:32;96799.56;;;19.26;100.00
57644;BME280;43474;46.510;6.686;2022-10-19T14:41:04;96792.63;;;19.49;100.00
57644;BME280;43474;46.510;6.686;2022-10-19T14:43:32;96801.88;;;19.67;100.00
57644;BME280;43474;46.510;6.686;2022-10-19T14:48:34;96777.41;;;19.40;100.00
57644;BME280;43474;46.510;6.686;2022-10-19T14:51:01;96776.13;;;19.32;100.00
57644;BME280;43474;46.510;6.686;2022-10-19T14:53:41;96818.06;;;19.57;100.00
57644;BME280;43474;46.510;6.686;2022-10-19T14:56:41;96798.56;;;19.17;100.00
57644;BME280;43474;46.510;6.686;2022-10-19T15:01:54;96800.28;;;18.58;100.00